Victory City, Texas
Current Conditions -  °F | °C
As of 9:53 PM on Wednesday 26 Nov 2014 (Local Time) from KTXK Reporting Station
Clear Clear  
Wind Chill:   Ceiling: Unl
Heat Index:   Visibility: 10mi
Dew Point: -1°   Wind: 9mph
Humidity: 50%   Direction: 310°NW
Pressure: 30.29"   Gusts: NA
Location:  33.474°N, 94.2882°W
Report Text: KTXK 270353Z AUTO 31008KT 10SM CLR 09/M01 A3029 RMK AO2 SLP257 T00941006
Loading
Personal Weather Stations






























Interactive Weather Map New forecast layout! Learn more

10-Day Weather Forecast

Advertisements
Track Severe Weather on mobile